Time;durP1;ratioP1;P1;durP2;ratioP2;P2;SDS_P1;SDS_P2;PMS_P1;PMS_P2;Temp;Humidity;BMP_temperature;BMP_pressure;BME280_temperature;BME280_humidity;BME280_pressure;Samples;Min_cycle;Max_cycle;Signal;HPM_P1;HPM_P2
2022/08/01 00:01:34;;;;;;;38.40;3.97;;;;;;;25.52;53.84;99194.44;7306198;19;129187;-38
2022/08/01 00:04:00;;;;;;;21.53;2.33;;;;;;;25.50;53.75;99196.44;7309277;19;128996;-41
2022/08/01 00:06:25;;;;;;;42.20;4.23;;;;;;;25.43;53.68;99179.69;7308445;19;129367;-39
2022/08/01 00:08:50;;;;;;;29.47;3.27;;;;;;;25.54;52.54;99192.47;7306432;19;130957;-40
2022/08/01 00:11:16;;;;;;;27.30;2.97;;;;;;;25.54;53.03;99187.19;7309038;19;130178;-42
2022/08/01 00:13:41;;;;;;;30.10;3.40;;;;;;;25.54;53.22;99192.47;7307840;19;129106;-38
2022/08/01 00:16:07;;;;;;;26.50;3.33;;;;;;;25.53;53.44;99186.41;7307674;19;129806;-41
2022/08/01 00:18:32;;;;;;;54.53;5.63;;;;;;;25.53;54.58;99183.75;7305758;19;130866;-43
2022/08/01 00:20:58;;;;;;;19.50;2.30;;;;;;;25.54;54.43;99187.19;7309729;19;130626;-44
2022/08/01 00:23:23;;;;;;;37.23;3.80;;;;;;;25.54;54.35;99179.28;7307336;19;129034;-42
2022/08/01 00:25:49;;;;;;;26.00;2.93;;;;;;;25.55;53.85;99178.31;7306488;19;129039;-45
2022/08/01 00:28:14;;;;;;;46.97;4.77;;;;;;;25.54;54.25;99172.22;7306316;19;130174;-43
2022/08/01 00:30:39;;;;;;;51.97;5.13;;;;;;;25.56;53.54;99174.69;7306670;19;129227;-39
2022/08/01 00:33:05;;;;;;;26.17;2.93;;;;;;;25.54;53.42;99172.22;7309313;19;130699;-43
2022/08/01 00:35:30;;;;;;;26.20;2.80;;;;;;;25.55;53.51;99183.59;7304727;19;129008;-41
2022/08/01 00:37:55;;;;;;;11.83;2.33;;;;;;;25.56;54.31;99169.41;7306390;19;130671;-43
2022/08/01 00:40:21;;;;;;;32.77;3.53;;;;;;;25.57;54.25;99171.88;7306836;19;130316;-38
2022/08/01 00:42:46;;;;;;;36.57;4.07;;;;;;;25.57;53.68;99171.03;7308280;19;130118;-41
2022/08/01 00:45:12;;;;;;;50.40;4.63;;;;;;;25.59;54.29;99179.59;7304454;19;129603;-42
2022/08/01 00:47:37;;;;;;;50.70;4.90;;;;;;;25.58;53.87;99175.34;7305569;19;130285;-39
2022/08/01 00:50:04;;;;;;;34.73;4.07;;;;;;;25.58;54.40;99180.59;7305854;19;132013;-40
2022/08/01 00:52:30;;;;;;;26.98;2.90;;;;;;;25.58;54.52;99173.50;7308515;19;129516;-36
2022/08/01 00:54:55;;;;;;;42.63;4.70;;;;;;;25.57;54.42;99181.56;7305584;19;129026;-42
2022/08/01 00:57:21;;;;;;;30.63;3.27;;;;;;;25.58;53.98;99181.38;7308407;19;129750;-36
2022/08/01 00:59:47;;;;;;;18.87;2.57;;;;;;;25.57;54.03;99181.56;7307636;19;130222;-39
2022/08/01 01:02:12;;;;;;;31.67;3.63;;;;;;;25.56;54.32;99175.50;7310096;19;129568;-41
2022/08/01 01:04:38;;;;;;;30.73;3.77;;;;;;;25.58;54.53;99170.06;7312381;19;129386;-40
2022/08/01 01:07:09;;;;;;;27.67;3.13;;;;;;;25.58;55.33;99167.44;7316629;19;129246;-42
2022/08/01 01:09:58;;;;;;;34.13;3.28;;;;;;;25.58;55.86;99170.06;7312168;19;129767;-42
2022/08/01 01:12:33;;;;;;;26.02;2.95;;;;;;;25.57;55.03;99165.78;7313228;19;129220;-41
2022/08/01 01:15:39;;;;;;;55.75;6.05;;;;;;;25.57;54.79;99174.50;7314215;19;131349;-42
2022/08/01 01:18:11;;;;;;;61.47;5.80;;;;;;;25.59;55.58;99174.31;7308542;19;130179;-40
2022/08/01 01:20:44;;;;;;;26.88;3.38;;;;;;;25.56;56.01;99179.94;7313198;19;130408;-42
2022/08/01 01:23:29;;;;;;;36.80;4.35;;;;;;;25.58;56.31;99183.22;7312001;19;129262;-42
2022/08/01 01:26:16;;;;;;;42.50;4.53;;;;;;;25.57;56.35;99171.03;7307432;19;130184;-42
2022/08/01 01:29:11;;;;;;;41.25;4.45;;;;;;;25.56;57.02;99170.25;7312759;19;129036;-37
2022/08/01 01:31:51;;;;;;;62.63;5.63;;;;;;;25.59;55.96;99180.41;7313024;19;130170;-43
2022/08/01 01:34:19;;;;;;;42.55;4.55;;;;;;;25.49;53.88;99155.31;7313838;19;129957;-36
2022/08/01 01:36:47;;;;;;;19.52;2.42;;;;;;;25.59;54.90;99169.06;7312614;19;130256;-40
2022/08/01 01:39:14;;;;;;;40.53;4.25;;;;;;;25.58;55.03;99162.16;7308866;19;129161;-43
2022/08/01 01:41:41;;;;;;;26.23;3.35;;;;;;;25.56;54.84;99169.41;7312813;19;130341;-40
2022/08/01 01:44:07;;;;;;;46.70;4.75;;;;;;;25.57;54.58;99163.13;7311090;19;129824;-37
2022/08/01 01:46:33;;;;;;;29.25;3.35;;;;;;;25.57;55.20;99160.50;7312300;19;129124;-41
2022/08/01 01:49:00;;;;;;;33.00;3.88;;;;;;;25.58;54.67;99154.28;7308883;19;130263;-42
2022/08/01 01:51:28;;;;;;;33.03;3.58;;;;;;;25.57;55.07;99149.97;7313156;19;129665;-42
2022/08/01 01:53:55;;;;;;;27.05;2.97;;;;;;;25.57;55.42;99149.97;7313206;19;129117;-43
2022/08/01 01:56:22;;;;;;;43.65;4.55;;;;;;;25.55;54.96;99158.06;7311329;19;128799;-42
2022/08/01 01:59:00;;;;;;;23.63;2.58;;;;;;;25.58;56.74;99151.63;7310177;19;130753;-42
2022/08/01 02:01:29;;;;;;;38.00;4.18;;;;;;;25.56;54.86;99153.63;7312155;19;129235;-42
2022/08/01 02:03:56;;;;;;;28.70;3.50;;;;;;;25.58;54.74;99156.91;7312530;19;129357;-39
2022/08/01 02:06:23;;;;;;;43.47;5.03;;;;;;;25.55;55.42;99152.00;7311453;19;131568;-42
2022/08/01 02:08:51;;;;;;;25.45;2.92;;;;;;;25.57;54.94;99157.88;7310679;19;129405;-41
2022/08/01 02:11:19;;;;;;;61.92;5.75;;;;;;;25.47;54.46;99149.38;7312951;19;131684;-37
2022/08/01 02:13:58;;;;;;;29.92;3.45;;;;;;;25.57;56.26;99155.25;7312793;19;128868;-42
2022/08/01 02:16:31;;;;;;;61.45;5.82;;;;;;;25.47;56.45;99144.13;7309688;19;129805;-39
2022/08/01 02:18:57;;;;;;;25.90;3.00;;;;;;;25.56;55.31;99159.72;7311163;19;131481;-38
2022/08/01 02:21:34;;;;;;;52.93;5.43;;;;;;;25.58;56.87;99159.53;7311362;19;130203;-40
2022/08/01 02:24:12;;;;;;;26.88;3.08;;;;;;;25.57;56.79;99157.88;7312786;19;129792;-39
2022/08/01 02:26:39;;;;;;;;;;;;;;;25.63;57.32;99171.16;7311840;19;130053;-42
2022/08/01 02:29:07;;;;;;;25.47;3.07;;;;;;;25.58;55.81;99162.97;7309991;19;131316;-42
2022/08/01 02:31:38;;;;;;;45.80;5.05;;;;;;;25.57;55.97;99165.78;7312032;19;130607;-42
2022/08/01 02:34:06;;;;;;;22.80;2.70;;;;;;;25.55;55.72;99173.06;7312499;19;130157;-39
2022/08/01 02:36:35;;;;;;;49.65;5.03;;;;;;;25.54;55.54;99169.59;7309053;19;129345;-42
2022/08/01 02:39:09;;;;;;;50.05;5.28;;;;;;;25.56;56.87;99169.41;7306999;19;130273;-42
2022/08/01 02:41:39;;;;;;;49.05;5.40;;;;;;;25.56;56.11;99164.16;7310435;19;129961;-38
2022/08/01 02:44:08;;;;;;;16.35;2.28;;;;;;;25.54;55.31;99166.13;7311594;19;130154;-44
2022/08/01 02:46:40;;;;;;;45.70;4.75;;;;;;;25.56;56.62;99169.41;7308016;19;129410;-43
2022/08/01 02:49:08;;;;;;;26.55;3.15;;;;;;;25.56;56.03;99174.69;7309135;19;129586;-37
2022/08/01 02:51:35;;;;;;;38.50;4.13;;;;;;;25.46;55.45;99145.97;7310718;19;130673;-43
2022/08/01 02:54:04;;;;;;;20.25;2.45;;;;;;;25.56;55.28;99164.16;7311565;19;129230;-40
2022/08/01 02:56:34;;;;;;;21.85;2.65;;;;;;;25.57;54.90;99165.78;7309762;19;129609;-38
2022/08/01 02:59:13;;;;;;;21.25;2.58;;;;;;;25.58;56.43;99164.81;7310719;19;130341;-38
2022/08/01 03:01:39;;;;;;;49.28;5.25;;;;;;;25.57;55.55;99176.31;7309791;19;130378;-38
2022/08/01 03:04:06;;;;;;;30.23;3.33;;;;;;;25.56;55.44;99178.13;7310906;19;130201;-40
2022/08/01 03:06:33;;;;;;;30.10;3.35;;;;;;;25.54;55.21;99166.97;7311619;19;129510;-41
2022/08/01 03:09:00;;;;;;;;;;;;;;;25.61;57.36;99161.81;7311012;19;129145;-37
2022/08/01 03:11:27;;;;;;;26.38;3.17;;;;;;;25.57;55.18;99174.50;7312705;19;129233;-43
2022/08/01 03:13:53;;;;;;;47.33;5.05;;;;;;;25.57;55.50;99178.94;7310654;19;130119;-41
2022/08/01 03:16:22;;;;;;;53.22;5.30;;;;;;;25.54;56.08;99177.50;7309786;19;129936;-39
2022/08/01 03:18:49;;;;;;;40.20;4.45;;;;;;;25.55;55.44;99180.94;7307681;19;130265;-40
2022/08/01 03:21:16;;;;;;;22.08;2.65;;;;;;;25.55;54.97;99183.59;7311192;19;130406;-41
2022/08/01 03:23:43;;;;;;;40.95;4.85;;;;;;;25.55;54.83;99183.59;7309987;19;130253;-39
2022/08/01 03:26:10;;;;;;;24.63;2.95;;;;;;;25.54;56.08;99181.94;7307618;19;129805;-42
2022/08/01 03:28:38;;;;;;;34.47;3.80;;;;;;;25.52;54.81;99170.75;7305236;19;129162;-38
2022/08/01 03:31:04;;;;;;;14.88;2.33;;;;;;;25.55;54.71;99178.31;7310242;19;131505;-37
2022/08/01 03:33:30;;;;;;;32.15;3.90;;;;;;;25.55;55.34;99176.47;7311898;19;130647;-42
2022/08/01 03:35:55;;;;;;;48.80;5.37;;;;;;;25.52;55.35;99168.09;7308657;19;131130;-38
2022/08/01 03:38:26;;;;;;;23.50;2.80;;;;;;;25.56;56.53;99174.69;7307581;19;130161;-39
2022/08/01 03:41:20;;;;;;;47.38;5.07;;;;;;;25.58;57.31;99177.97;7309513;19;130182;-42
2022/08/01 03:43:56;;;;;;;36.08;3.90;;;;;;;25.56;57.18;99177.31;7309491;19;129633;-41
2022/08/01 03:46:44;;;;;;;29.88;3.70;;;;;;;25.57;56.71;99181.56;7305549;19;129846;-42
2022/08/01 03:49:18;;;;;;;31.52;3.70;;;;;;;25.54;55.60;99176.66;7306861;19;128997;-42
2022/08/01 03:51:49;;;;;;;52.13;5.60;;;;;;;25.54;55.17;99179.28;7309492;19;130439;-41
2022/08/01 03:54:17;;;;;;;27.90;3.17;;;;;;;25.55;55.50;99180.94;7311971;19;129346;-43
2022/08/01 03:56:45;;;;;;;26.38;3.70;;;;;;;25.55;55.71;99179.13;7307260;19;128991;-43
2022/08/01 03:59:11;;;;;;;45.80;4.80;;;;;;;25.54;55.39;99181.94;7306830;19;129551;-41
2022/08/01 04:01:36;;;;;;;43.97;4.47;;;;;;;25.55;54.94;99188.84;7308566;19;129273;-39
2022/08/01 04:04:04;;;;;;;34.93;4.10;;;;;;;25.52;54.16;99181.28;7308152;19;128862;-41
2022/08/01 04:06:30;;;;;;;28.35;3.47;;;;;;;25.54;54.80;99179.28;7305479;19;129506;-40
2022/08/01 04:08:55;;;;;;;23.50;2.90;;;;;;;25.54;55.94;99179.28;7306902;19;130090;-43
2022/08/01 04:11:23;;;;;;;46.27;5.00;;;;;;;25.54;55.94;99185.38;7308165;19;130950;-42
2022/08/01 04:13:49;;;;;;;17.08;2.65;;;;;;;25.44;54.95;99166.38;7308696;19;129065;-41
2022/08/01 04:16:14;;;;;;;43.43;4.83;;;;;;;25.55;55.32;99194.13;7305809;19;131144;-42
2022/08/01 04:18:40;;;;;;;26.93;3.23;;;;;;;25.56;54.96;99193.09;7306452;19;131126;-42
2022/08/01 04:21:05;;;;;;;28.83;3.27;;;;;;;25.54;54.98;99198.53;7308600;19;129150;-42
2022/08/01 04:23:34;;;;;;;71.17;6.60;;;;;;;25.53;54.79;99190.81;7307697;19;130415;-40
2022/08/01 04:26:03;;;;;;;22.80;2.80;;;;;;;25.54;56.42;99192.47;7306461;19;131092;-40
2022/08/01 04:28:31;;;;;;;44.33;4.63;;;;;;;25.54;55.54;99193.28;7305620;19;130837;-38
2022/08/01 04:30:59;;;;;;;18.80;2.35;;;;;;;25.53;53.82;99194.28;7309052;19;130891;-40
2022/08/01 04:33:26;;;;;;;32.88;3.72;;;;;;;25.54;54.84;99200.34;7307890;19;129367;-38
2022/08/01 04:35:52;;;;;;;24.10;2.72;;;;;;;25.53;55.44;99202.19;7306761;19;129169;-40
2022/08/01 04:38:21;;;;;;;48.93;5.30;;;;;;;25.54;55.98;99203.81;7307690;19;131142;-38
2022/08/01 04:40:46;;;;;;;58.95;5.68;;;;;;;25.55;55.51;99210.72;7313179;19;130406;-40
2022/08/01 04:43:12;;;;;;;31.00;3.83;;;;;;;25.55;54.51;99207.28;7317882;19;131227;-38
2022/08/01 04:45:38;;;;;;;38.60;4.47;;;;;;;25.54;54.98;99214.34;7313346;19;129785;-39
2022/08/01 04:48:06;;;;;;;48.83;5.05;;;;;;;25.58;55.09;99217.44;7314111;19;130204;-41
2022/08/01 04:50:32;;;;;;;27.20;3.42;;;;;;;25.51;55.80;99200.72;7315481;19;130497;-38
2022/08/01 04:52:57;;;;;;;41.87;4.37;;;;;;;25.53;55.47;99217.97;7315405;19;130208;-42
2022/08/01 04:55:23;;;;;;;22.73;2.67;;;;;;;25.51;55.17;99203.34;7314554;19;130557;-39
2022/08/01 04:57:48;;;;;;;29.97;3.67;;;;;;;25.61;55.46;99219.72;7314544;19;129714;-40
2022/08/01 05:00:16;;;;;;;25.17;3.20;;;;;;;25.60;54.82;99218.09;7312940;19;130350;-36
2022/08/01 05:02:41;;;;;;;27.60;3.28;;;;;;;25.60;54.48;99223.38;7315335;19;130721;-39
2022/08/01 05:05:07;;;;;;;54.43;5.87;;;;;;;25.59;54.36;99226.97;7312209;19;129535;-41
2022/08/01 05:07:35;;;;;;;31.07;3.27;;;;;;;25.58;55.71;99215.63;7313693;19;129159;-38
2022/08/01 05:10:05;;;;;;;26.92;3.15;;;;;;;25.58;54.84;99220.09;7310912;19;130464;-39
2022/08/01 05:12:31;;;;;;;24.63;2.75;;;;;;;25.58;53.99;99223.50;7315970;19;129718;-41
2022/08/01 05:14:58;;;;;;;29.38;3.33;;;;;;;25.59;54.78;99216.44;7312687;19;129077;-42
2022/08/01 05:17:23;;;;;;;54.00;5.10;;;;;;;25.60;54.92;99226.00;7311141;19;130538;-43
2022/08/01 05:19:49;;;;;;;38.00;3.97;;;;;;;25.59;54.28;99226.97;7310009;19;129225;-37
2022/08/01 05:22:14;;;;;;;35.67;3.87;;;;;;;25.58;54.14;99241.94;7313142;19;129778;-43
2022/08/01 05:24:40;;;;;;;25.57;3.23;;;;;;;25.59;54.99;99232.25;7312675;19;129404;-40
2022/08/01 05:27:08;;;;;;;29.37;3.00;;;;;;;25.59;54.84;99230.44;7314290;19;130872;-39
2022/08/01 05:29:34;;;;;;;62.25;6.13;;;;;;;25.57;55.40;99232.41;7308757;19;130432;-43
2022/08/01 05:32:00;;;;;;;25.73;3.00;;;;;;;25.58;54.07;99225.34;7313357;19;129063;-42
2022/08/01 05:34:26;;;;;;;38.53;3.97;;;;;;;25.57;54.95;99224.53;7311513;19;130823;-40
2022/08/01 05:36:52;;;;;;;30.67;3.50;;;;;;;25.59;55.10;99229.59;7312874;19;130151;-41
2022/08/01 05:39:17;;;;;;;29.40;3.37;;;;;;;25.48;55.82;99215.06;7310174;19;131167;-43
2022/08/01 05:41:42;;;;;;;63.37;6.17;;;;;;;25.61;55.96;99230.25;7311270;19;130788;-36
2022/08/01 05:44:08;;;;;;;44.77;4.83;;;;;;;25.59;55.58;99230.44;7308949;19;130572;-41
2022/08/01 05:46:35;;;;;;;55.27;5.60;;;;;;;25.59;56.10;99227.81;7306219;19;129722;-38
2022/08/01 05:49:02;;;;;;;32.28;3.40;;;;;;;25.60;55.09;99236.53;7309249;19;130374;-37
2022/08/01 05:51:28;;;;;;;35.08;3.80;;;;;;;25.62;54.82;99231.88;7307311;19;129428;-38
2022/08/01 05:53:53;;;;;;;45.63;4.50;;;;;;;25.68;54.95;99236.47;7308500;19;129449;-41
2022/08/01 05:56:20;;;;;;;27.03;3.07;;;;;;;25.64;54.76;99241.28;7310521;19;129940;-41
2022/08/01 05:58:46;;;;;;;37.30;4.18;;;;;;;25.61;56.02;99239.00;7308276;19;131184;-40
2022/08/01 06:01:12;;;;;;;38.53;3.77;;;;;;;25.61;55.70;99240.78;7310991;19;128927;-40
2022/08/01 06:03:37;;;;;;;32.03;3.57;;;;;;;25.62;56.79;99242.41;7311291;19;130547;-41
2022/08/01 06:06:03;;;;;;;50.27;4.90;;;;;;;25.61;55.80;99240.78;7301577;19;131046;-37
2022/08/01 06:08:29;;;;;;;44.87;4.57;;;;;;;25.62;55.42;99247.69;7307693;19;130320;-42
2022/08/01 06:10:54;;;;;;;22.13;2.53;;;;;;;25.54;56.08;99230.13;7310296;19;130575;-39
2022/08/01 06:13:20;;;;;;;88.77;8.50;;;;;;;25.55;55.99;99236.22;7303692;19;130068;-38
2022/08/01 06:15:46;;;;;;;30.63;3.03;;;;;;;25.62;55.95;99253.78;7292550;19;132501;-37
2022/08/01 06:18:12;;;;;;;81.32;8.20;;;;;;;25.60;55.89;99249.69;7303929;19;130256;-39
2022/08/01 06:20:38;;;;;;;39.83;4.33;;;;;;;25.63;56.21;99257.25;7304757;19;129967;-40
2022/08/01 06:23:03;;;;;;;153.37;13.93;;;;;;;25.62;55.91;99255.59;7305969;19;130688;-39
2022/08/01 06:25:29;;;;;;;65.67;6.60;;;;;;;25.63;56.04;99263.31;7299062;19;129715;-38
2022/08/01 06:27:54;;;;;;;39.43;4.00;;;;;;;25.64;56.26;99261.50;7304941;19;129679;-43
2022/08/01 06:30:20;;;;;;;12.03;2.10;;;;;;;25.64;55.74;99261.50;7309030;19;130066;-43
2022/08/01 06:32:46;;;;;;;45.87;4.37;;;;;;;25.64;56.04;99266.78;7308593;19;130559;-41
2022/08/01 06:35:11;;;;;;;76.80;7.07;;;;;;;25.64;55.96;99272.88;7301968;19;130578;-39
2022/08/01 06:37:37;;;;;;;41.13;4.33;;;;;;;25.65;55.50;99284.22;7307532;19;129459;-41
2022/08/01 06:40:04;;;;;;;56.10;5.23;;;;;;;25.66;56.12;99283.22;7297441;19;130304;-41
2022/08/01 06:42:31;;;;;;;40.13;4.00;;;;;;;25.64;56.04;99282.56;7309691;19;130580;-42
2022/08/01 06:44:57;;;;;;;39.65;3.88;;;;;;;25.62;56.41;99295.91;7306020;19;131042;-40
2022/08/01 06:47:22;;;;;;;42.17;4.27;;;;;;;25.62;56.65;99290.63;7301741;19;130401;-36
2022/08/01 06:49:48;;;;;;;77.33;7.13;;;;;;;25.63;56.70;99297.53;7302014;19;129104;-42
2022/08/01 06:52:13;;;;;;;88.93;7.97;;;;;;;25.64;56.68;99298.38;7304753;19;129188;-40
2022/08/01 06:54:39;;;;;;;57.00;5.37;;;;;;;25.65;56.93;99300.03;7303067;19;130653;-42
2022/08/01 06:57:05;;;;;;;56.27;5.37;;;;;;;25.63;57.11;99286.22;7304527;19;131120;-37
2022/08/01 06:59:30;;;;;;;47.70;4.97;;;;;;;25.62;56.78;99295.91;7307391;19;129548;-44
2022/08/01 07:01:56;;;;;;;41.50;4.27;;;;;;;25.64;56.44;99293.09;7303902;19;130130;-37
2022/08/01 07:04:21;;;;;;;41.20;4.50;;;;;;;25.60;56.82;99286.56;7308099;19;131103;-41
2022/08/01 07:06:47;;;;;;;25.97;2.73;;;;;;;25.64;56.59;99288.66;7305050;19;130394;-42
2022/08/01 07:09:12;;;;;;;34.00;3.67;;;;;;;25.63;57.61;99296.75;7308416;19;129471;-41
2022/08/01 07:11:38;;;;;;;39.40;4.67;;;;;;;25.62;56.93;99295.06;7308104;19;129675;-40
2022/08/01 07:14:04;;;;;;;33.40;3.55;;;;;;;25.62;57.42;99301.16;7308957;19;131437;-37
2022/08/01 07:16:29;;;;;;;67.70;6.50;;;;;;;25.66;56.43;99301.66;7302536;19;132499;-39
2022/08/01 07:18:54;;;;;;;31.30;3.70;;;;;;;25.72;56.34;99303.59;7303495;19;129177;-38
2022/08/01 07:21:20;;;;;;;29.47;3.00;;;;;;;25.73;56.44;99310.50;7302798;19;131104;-41
2022/08/01 07:23:45;;;;;;;51.57;5.23;;;;;;;25.67;56.93;99309.38;7307311;19;128985;-41
2022/08/01 07:26:10;;;;;;;45.73;5.17;;;;;;;25.64;57.49;99298.38;7305892;19;131061;-42
2022/08/01 07:28:36;;;;;;;33.13;3.57;;;;;;;25.64;58.02;99304.47;7306925;19;129343;-43
2022/08/01 07:31:01;;;;;;;30.10;3.37;;;;;;;25.62;57.29;99295.06;7308659;19;130855;-43
2022/08/01 07:33:27;;;;;;;47.13;4.97;;;;;;;25.62;57.38;99306.44;7306310;19;130428;-42
2022/08/01 07:35:52;;;;;;;56.67;4.57;;;;;;;25.61;57.21;99304.81;7305666;19;129792;-42
2022/08/01 07:38:17;;;;;;;57.67;5.67;;;;;;;25.63;57.42;99302.81;7304602;19;129950;-39
2022/08/01 07:40:43;;;;;;;53.03;5.50;;;;;;;25.57;57.78;99292.97;7305684;19;130390;-39
2022/08/01 07:43:09;;;;;;;29.80;3.13;;;;;;;25.61;56.47;99299.53;7298829;19;130506;-38
2022/08/01 07:45:34;;;;;;;35.37;4.03;;;;;;;25.58;57.65;99291.97;7301242;19;129736;-44
2022/08/01 07:48:06;;;;;;;48.97;4.80;;;;;;;25.63;58.93;99305.44;7304825;19;130763;-39
2022/08/01 07:50:32;;;;;;;51.70;4.68;;;;;;;25.55;58.93;99294.94;7306644;19;130779;-42
2022/08/01 07:52:58;;;;;;;27.45;3.05;;;;;;;25.64;58.00;99303.63;7307404;19;129588;-43
2022/08/01 07:55:23;;;;;;;55.20;5.47;;;;;;;25.62;57.93;99300.34;7299985;19;130750;-39
2022/08/01 07:57:48;;;;;;;31.67;3.27;;;;;;;25.64;58.28;99290.47;7307769;19;129191;-40
2022/08/01 08:00:15;;;;;;;37.27;3.97;;;;;;;25.63;58.67;99302.00;7302814;19;131962;-44
2022/08/01 08:02:40;;;;;;;41.80;4.32;;;;;;;25.63;58.78;99302.81;7305798;19;130342;-41
2022/08/01 08:05:07;;;;;;;25.30;2.77;;;;;;;25.61;58.98;99296.91;7308382;19;129321;-43
2022/08/01 08:07:32;;;;;;;33.80;3.38;;;;;;;25.61;59.05;99288.19;7309853;19;129384;-41
2022/08/01 08:09:58;;;;;;;28.67;3.20;;;;;;;25.62;58.01;99293.28;7307874;19;129121;-43
2022/08/01 08:12:24;;;;;;;89.60;8.07;;;;;;;25.62;58.93;99295.06;7303999;19;129438;-37
2022/08/01 08:14:49;;;;;;;50.40;5.20;;;;;;;25.54;58.57;99292.50;7306835;19;129490;-40
2022/08/01 08:17:14;;;;;;;33.33;3.53;;;;;;;25.64;58.22;99298.38;7313671;19;129011;-40
2022/08/01 08:19:40;;;;;;;56.60;5.57;;;;;;;25.63;58.17;99302.81;7308683;19;131687;-38
2022/08/01 08:22:07;;;;;;;40.93;4.27;;;;;;;25.64;58.08;99303.63;7313251;19;129675;-43
2022/08/01 08:24:33;;;;;;;24.88;2.92;;;;;;;25.64;58.78;99303.63;7312358;19;130354;-41
2022/08/01 08:26:59;;;;;;;45.33;4.57;;;;;;;25.63;58.55;99297.53;7310422;19;129709;-41
2022/08/01 08:29:26;;;;;;;61.50;6.05;;;;;;;25.63;58.95;99294.91;7302079;19;130556;-43
2022/08/01 08:31:54;;;;;;;39.40;3.92;;;;;;;25.63;58.75;99297.53;7309404;19;130597;-37
2022/08/01 08:34:20;;;;;;;42.33;4.32;;;;;;;25.62;58.56;99295.91;7314326;19;130366;-40
2022/08/01 08:36:46;;;;;;;15.20;2.80;;;;;;;25.65;58.31;99300.03;7315374;19;129687;-39
2022/08/01 08:39:11;;;;;;;39.60;4.07;;;;;;;25.64;58.16;99298.38;7309296;19;130277;-39
2022/08/01 08:41:37;;;;;;;28.70;3.27;;;;;;;25.64;58.08;99303.63;7317148;19;129449;-41
2022/08/01 08:44:08;;;;;;;47.67;5.13;;;;;;;25.62;59.26;99300.34;7313620;19;130511;-38
2022/08/01 08:46:39;;;;;;;29.52;3.10;;;;;;;25.63;58.20;99307.28;7310092;19;129774;-42
2022/08/01 08:49:06;;;;;;;25.60;2.92;;;;;;;25.62;58.64;99298.53;7311297;19;129222;-41
2022/08/01 08:51:33;;;;;;;23.50;2.88;;;;;;;25.59;58.60;99303.31;7314803;19;129686;-42
2022/08/01 08:54:03;;;;;;;12.80;2.05;;;;;;;25.62;59.21;99306.44;7303134;19;129072;-43
2022/08/01 08:56:33;;;;;;;39.70;4.25;;;;;;;25.61;58.80;99298.72;7310911;19;129346;-40
2022/08/01 08:59:00;;;;;;;16.67;2.05;;;;;;;25.61;58.94;99309.25;7303379;19;129622;-37
2022/08/01 09:01:26;;;;;;;57.85;5.55;;;;;;;25.62;59.18;99309.06;7307462;19;129465;-38
2022/08/01 09:03:52;;;;;;;30.33;3.30;;;;;;;25.62;58.38;99305.59;7310560;19;131700;-39
2022/08/01 09:06:18;;;;;;;63.50;5.97;;;;;;;25.61;58.72;99310.06;7306001;19;129858;-42
2022/08/01 09:08:43;;;;;;;33.80;3.37;;;;;;;25.62;57.54;99309.06;7308182;19;130445;-42
2022/08/01 09:11:09;;;;;;;24.03;2.67;;;;;;;25.62;58.69;99316.13;7310407;19;130622;-39
2022/08/01 09:13:35;;;;;;;127.20;11.23;;;;;;;25.60;58.34;99308.41;7303202;19;130698;-43
2022/08/01 09:16:00;;;;;;;53.17;4.73;;;;;;;25.62;58.68;99314.34;7304467;19;129533;-41
2022/08/01 09:18:40;;;;;;;94.50;8.37;;;;;;;25.63;59.78;99310.69;7303045;19;130233;-41
2022/08/01 09:21:05;;;;;;;27.58;2.83;;;;;;;25.63;58.72;99305.44;7311197;19;131366;-42
2022/08/01 09:23:42;;;;;;;67.63;6.63;;;;;;;25.65;59.59;99310.56;7310460;19;130433;-44
2022/08/01 09:26:11;;;;;;;14.07;1.93;;;;;;;25.63;58.17;99302.00;7310018;19;130360;-39
2022/08/01 09:28:37;;;;;;;53.00;4.93;;;;;;;25.61;58.27;99303.97;7307728;19;130494;-43
2022/08/01 09:31:08;;;;;;;36.07;3.57;;;;;;;25.63;60.03;99304.63;7310778;19;130100;-41
2022/08/01 09:33:57;;;;;;;45.00;4.20;;;;;;;25.63;59.76;99307.28;7304071;19;129302;-42
2022/08/01 09:36:25;;;;;;;22.55;2.35;;;;;;;25.63;58.36;99309.91;7312594;19;129530;-42
2022/08/01 09:38:52;;;;;;;54.55;4.85;;;;;;;25.53;59.04;99286.44;7302503;19;129547;-39
2022/08/01 09:41:30;;;;;;;26.77;2.72;;;;;;;25.62;60.54;99305.59;7311088;19;130957;-44
2022/08/01 09:43:55;;;;;;;61.55;6.00;;;;;;;25.62;57.70;99311.72;7307324;19;130095;-41
2022/08/01 09:46:21;;;;;;;25.27;2.47;;;;;;;25.63;58.97;99309.91;7307618;19;129186;-41
2022/08/01 09:49:00;;;;;;;16.93;2.10;;;;;;;25.65;60.15;99311.34;7309548;19;129117;-39
2022/08/01 09:51:34;;;;;;;36.38;3.38;;;;;;;25.66;59.89;99306.91;7310099;19;130214;-42
2022/08/01 09:54:00;;;;;;;37.50;4.10;;;;;;;25.63;59.16;99302.00;7309692;19;130540;-38
2022/08/01 09:56:29;;;;;;;29.57;3.07;;;;;;;25.64;58.03;99303.63;7307450;19;129530;-43
2022/08/01 09:58:59;;;;;;;26.13;2.60;;;;;;;25.62;59.42;99305.59;7306173;19;131149;-44
2022/08/01 10:01:25;;;;;;;24.65;2.42;;;;;;;25.64;59.43;99308.91;7311769;19;130684;-38
2022/08/01 10:04:05;;;;;;;31.03;2.73;;;;;;;25.63;59.69;99312.53;7311835;19;129490;-38
2022/08/01 10:06:31;;;;;;;43.55;4.20;;;;;;;25.55;58.28;99296.78;7307366;19;130607;-38
2022/08/01 10:08:56;;;;;;;52.97;4.90;;;;;;;25.60;58.26;99316.31;7306658;19;130320;-42
2022/08/01 10:11:22;;;;;;;23.73;2.50;;;;;;;25.60;58.28;99313.69;7310739;19;131236;-42
2022/08/01 10:13:48;;;;;;;49.10;4.60;;;;;;;25.61;59.01;99303.97;7310580;19;130425;-43
2022/08/01 10:16:15;;;;;;;50.47;4.87;;;;;;;25.60;58.79;99313.69;7308799;19;130836;-40
2022/08/01 10:18:41;;;;;;;29.92;2.83;;;;;;;25.59;59.51;99311.22;7309366;19;128787;-42
2022/08/01 10:21:06;;;;;;;29.52;2.80;;;;;;;25.50;59.09;99307.81;7311624;19;129248;-41
2022/08/01 10:23:36;;;;;;;28.03;2.83;;;;;;;25.59;59.56;99317.31;7312444;19;131202;-38
2022/08/01 10:26:04;;;;;;;26.13;2.50;;;;;;;25.57;58.78;99321.94;7306311;19;130803;-40
2022/08/01 10:28:31;;;;;;;38.80;3.83;;;;;;;25.58;59.45;99325.41;7310346;19;129245;-43
2022/08/01 10:31:00;;;;;;;23.98;2.17;;;;;;;25.58;59.60;99326.19;7310851;19;129089;-38
2022/08/01 10:33:26;;;;;;;44.92;4.07;;;;;;;25.59;59.54;99316.50;7311454;19;130651;-43
2022/08/01 10:35:51;;;;;;;15.27;2.00;;;;;;;25.59;58.24;99316.50;7309592;19;129907;-44
2022/08/01 10:38:17;;;;;;;69.70;6.67;;;;;;;25.59;58.84;99309.41;7306670;19;129074;-41
2022/08/01 10:40:43;;;;;;;24.27;2.43;;;;;;;25.58;58.34;99309.59;7311348;19;129397;-39
2022/08/01 10:43:16;;;;;;;22.70;2.42;;;;;;;25.59;59.70;99308.59;7308663;19;130132;-42
2022/08/01 10:45:43;;;;;;;25.50;2.55;;;;;;;25.59;59.40;99319.13;7304286;19;129141;-43
2022/08/01 10:48:19;;;;;;;41.58;4.15;;;;;;;25.59;60.10;99314.69;7306917;19;128972;-41
2022/08/01 10:50:48;;;;;;;25.80;2.42;;;;;;;25.59;59.63;99313.84;7311649;19;131252;-40
2022/08/01 10:53:24;;;;;;;25.15;2.38;;;;;;;25.59;60.07;99311.22;7307253;19;129665;-41
2022/08/01 10:56:00;;;;;;;31.65;2.88;;;;;;;25.59;60.17;99316.50;7310873;19;129376;-39
2022/08/01 10:58:32;;;;;;;26.13;2.80;;;;;;;25.60;59.95;99312.88;7309735;19;128909;-37
2022/08/01 11:01:17;;;;;;;28.13;2.70;;;;;;;25.61;60.41;99319.78;7307734;19;131711;-41
2022/08/01 11:03:44;;;;;;;25.52;2.53;;;;;;;25.58;58.49;99320.13;7308750;19;130514;-44
2022/08/01 11:06:25;;;;;;;24.27;2.63;;;;;;;25.59;60.60;99317.31;7306519;19;129528;-41
2022/08/01 11:08:53;;;;;;;19.27;2.33;;;;;;;25.58;58.75;99314.88;7308093;19;130631;-39
2022/08/01 11:11:19;;;;;;;31.38;3.17;;;;;;;25.53;58.33;99302.22;7309448;19;130907;-43
2022/08/01 11:14:09;;;;;;;51.28;4.82;;;;;;;25.61;59.98;99310.06;7310258;19;131797;-42
2022/08/01 11:16:36;;;;;;;28.63;2.83;;;;;;;25.59;59.12;99311.22;7308663;19;131252;-42
2022/08/01 11:19:03;;;;;;;37.10;3.38;;;;;;;25.60;59.27;99315.53;7306997;19;129234;-41
2022/08/01 11:21:54;;;;;;;13.00;1.70;;;;;;;25.60;60.52;99312.88;7310572;19;129449;-42